Tri-State/Milton J. Ferguson Field
KHTS : rendu visible

Aérodrome :











RETROUVEZ-NOUS SUR...

 
LOGIN :

S'inscrire | Disclaimer

   EN    FR    IT 

 









Légende :    VFR   VFR Marginal   IFR   IFR Intensif   IFR Très Intensif
Visi : 
Plafond : 
>= 8 km
>= 3000ft
5 à 8 km
1000 à 3000 ft
1500m à 5 km
500 à 1000 ft
800 à 1500m
200 à 500 ft
< 800m
< 200 ft
Symboles :   Orages  Brouillard  Fortes neiges  Fortes précipitations  Vent > 20 kt






- Altitude de l'aérodrome : 828 ft
- Code IATA : HTS


KHTS - Tri-State/Milton J. Ferguson Field

DERNIER METAR :
  • 211551Z 18003KT 10SM FEW120 08/04 A3017 RMK AO2 SLP218 T00830039

METARs EXPIRÉS :
  • 211451Z 00000KT 10SM FEW120 07/03 A3017 RMK AO2 SLP219 T00670033 58006
  • 211351Z 00000KT 10SM CLR 04/02 A3018 RMK AO2 SLP224 T00390022
  • 211251Z 20003KT 9SM CLR 03/02 A3019 RMK AO2 SLP226 T00280017

TAF KHTS
Valide du 21 à 15h jusqu'au 22 à 12h UTC


211442Z 2115/2212 21005KT P6SM BKN200
FM220800 23005KT P6SM -RA OVC023
FM221000 26005KT 3SM -RA OVC019



MET'MAP, la Météo Aéronautique d'un coup d'oeil ! - Copyright ORBIFLY Décembre 2007 - Disclaimer

ORBIFLY MET'MAP TEAM :

Programmation & Développement : Alexandra Zaïnal
Conception & Développement : Baudouin d'Aumeries
Co-Programmation & Développement : Marc-Olivier Méhu
Soutien technique & logistique : Manuel Goepfert

Contact : metmap@orbifly.com




SOURCES & CREDITS :

   NOAA       Earth
Advisory